createdAt,value
2023-04-02T00:00:10.649Z,2.95
2023-04-02T00:01:50.898Z,3.40
2023-04-02T00:02:58.417Z,3.03
2023-04-02T00:04:00.002Z,2.85
2023-04-02T00:05:16.354Z,2.45
2023-04-02T00:06:45.274Z,3.15
2023-04-02T00:07:58.153Z,2.90
2023-04-02T00:09:03.289Z,2.80
2023-04-02T00:10:05.348Z,3.67
2023-04-02T00:11:09.104Z,3.00
2023-04-02T00:12:19.454Z,2.92
2023-04-02T00:13:43.904Z,2.70
2023-04-02T00:14:48.608Z,2.65
2023-04-02T00:15:54.481Z,3.20
2023-04-02T00:17:01.363Z,3.35
2023-04-02T00:18:04.188Z,3.20
2023-04-02T00:20:15.867Z,2.97
2023-04-02T00:21:17.254Z,3.00
2023-04-02T00:22:26.482Z,3.42
2023-04-02T00:23:28.380Z,3.30
2023-04-02T00:24:30.052Z,3.33
2023-04-02T00:25:36.994Z,3.40
2023-04-02T00:26:58.889Z,3.35
2023-04-02T00:28:00.690Z,3.00
2023-04-02T00:29:04.298Z,4.53
2023-04-02T00:30:07.079Z,3.45
2023-04-02T00:31:10.951Z,3.28
2023-04-02T00:32:20.858Z,4.40
2023-04-02T00:33:28.144Z,3.42
2023-04-02T00:34:34.986Z,3.63
2023-04-02T00:35:39.457Z,3.72
2023-04-02T00:36:42.126Z,4.30
2023-04-02T00:37:47.206Z,3.30
2023-04-02T00:38:49.161Z,4.85
2023-04-02T00:40:07.316Z,4.05
2023-04-02T00:41:10.466Z,6.28
2023-04-02T00:42:14.326Z,3.88
2023-04-02T00:43:16.835Z,4.63
2023-04-02T00:44:22.055Z,4.05
2023-04-02T00:45:30.861Z,4.13
2023-04-02T00:46:46.957Z,4.57
2023-04-02T00:47:48.880Z,4.43
2023-04-02T00:48:59.702Z,3.88
2023-04-02T00:50:18.554Z,7.28
2023-04-02T00:51:38.086Z,6.28
2023-04-02T00:52:42.166Z,6.07
2023-04-02T00:53:47.386Z,5.35
2023-04-02T00:54:54.901Z,4.15
2023-04-02T00:55:58.878Z,5.13
2023-04-02T00:57:01.770Z,3.42
2023-04-02T00:58:16.013Z,4.18
2023-04-02T00:59:30.992Z,4.85
2023-04-02T01:00:35.205Z,3.80
2023-04-02T01:01:37.841Z,4.50
2023-04-02T01:02:41.217Z,3.97
2023-04-02T01:03:43.958Z,3.47
2023-04-02T01:05:05.540Z,4.35
2023-04-02T01:06:11.414Z,3.65
2023-04-02T01:07:13.247Z,4.53
2023-04-02T01:08:36.305Z,3.92
2023-04-02T01:09:45.491Z,4.20
2023-04-02T01:11:15.895Z,4.53
2023-04-02T01:12:20.455Z,4.75
2023-04-02T01:13:31.121Z,3.92
2023-04-02T01:15:01.252Z,3.08
2023-04-02T01:16:36.485Z,3.60
2023-04-02T01:18:09.696Z,4.60
2023-04-02T01:19:43.734Z,2.95
2023-04-02T01:21:36.936Z,4.05
2023-04-02T01:23:11.796Z,3.35
2023-04-02T01:24:14.570Z,4.60
2023-04-02T01:25:26.102Z,4.10
2023-04-02T01:26:51.702Z,3.67
2023-04-02T01:28:20.190Z,4.45
2023-04-02T01:29:27.600Z,3.85
2023-04-02T01:30:29.344Z,3.88
2023-04-02T01:31:33.461Z,3.95
2023-04-02T01:32:36.132Z,5.10
2023-04-02T01:33:41.340Z,5.15
2023-04-02T01:34:44.755Z,4.93
2023-04-02T01:35:55.921Z,6.13
2023-04-02T01:37:06.348Z,4.32
2023-04-02T01:38:18.132Z,4.20
2023-04-02T01:39:56.177Z,3.45
2023-04-02T01:41:09.353Z,3.78
2023-04-02T01:42:48.800Z,3.35
2023-04-02T01:43:58.323Z,5.22
2023-04-02T01:45:08.039Z,3.50
2023-04-02T01:46:30.464Z,4.25
2023-04-02T01:47:33.322Z,4.15
2023-04-02T01:48:34.924Z,5.97
2023-04-02T01:49:36.669Z,4.35
2023-04-02T01:50:41.692Z,4.35
2023-04-02T01:51:46.351Z,3.75
2023-04-02T01:52:54.032Z,6.25
2023-04-02T01:53:59.475Z,4.15
2023-04-02T01:55:01.510Z,5.38
2023-04-02T01:56:04.890Z,3.95
2023-04-02T01:57:08.186Z,4.03
2023-04-02T01:58:11.858Z,4.00
2023-04-02T01:59:16.817Z,4.20
2023-04-02T02:00:19.620Z,5.55
2023-04-02T02:01:25.887Z,5.20
2023-04-02T02:02:28.104Z,3.95
2023-04-02T02:03:30.374Z,4.25
2023-04-02T02:04:34.106Z,4.10
2023-04-02T02:05:36.427Z,4.28
2023-04-02T02:06:38.327Z,4.10
2023-04-02T02:07:41.384Z,4.53
2023-04-02T02:08:58.720Z,4.93
2023-04-02T02:10:00.336Z,4.45
2023-04-02T02:11:02.553Z,4.53
2023-04-02T02:12:04.415Z,4.00
2023-04-02T02:13:14.390Z,4.55
2023-04-02T02:14:18.826Z,4.07
2023-04-02T02:15:23.462Z,5.38
2023-04-02T02:16:29.324Z,4.32
2023-04-02T02:17:34.659Z,4.93
2023-04-02T02:18:36.466Z,3.83
2023-04-02T02:19:55.760Z,4.57
2023-04-02T02:21:00.085Z,4.35
2023-04-02T02:22:04.264Z,4.60
2023-04-02T02:23:06.175Z,3.80
2023-04-02T02:24:19.268Z,5.50
2023-04-02T02:25:25.104Z,3.92
2023-04-02T02:26:29.666Z,4.95
2023-04-02T02:27:45.383Z,5.93
2023-04-02T02:28:53.655Z,5.65
2023-04-02T02:30:23.534Z,6.60
2023-04-02T02:31:31.208Z,5.47
2023-04-02T02:32:34.823Z,4.65
2023-04-02T02:33:42.282Z,4.80
2023-04-02T02:35:02.061Z,5.38
2023-04-02T02:36:23.465Z,4.53
2023-04-02T02:37:30.652Z,6.47
2023-04-02T02:38:39.223Z,5.30
2023-04-02T02:39:44.490Z,6.10
2023-04-02T02:40:50.477Z,5.75
2023-04-02T02:41:57.438Z,4.78
2023-04-02T02:43:02.623Z,4.20
2023-04-02T02:44:10.375Z,4.97
2023-04-02T02:45:19.078Z,4.57
2023-04-02T02:46:23.668Z,5.82
2023-04-02T02:47:28.408Z,4.72
2023-04-02T02:48:37.505Z,4.55
2023-04-02T02:49:52.397Z,4.75
2023-04-02T02:50:56.195Z,6.45
2023-04-02T02:52:12.867Z,4.32
2023-04-02T02:53:24.829Z,5.38
2023-04-02T02:54:27.904Z,4.55
2023-04-02T02:55:37.720Z,5.63
2023-04-02T02:56:44.332Z,5.32
2023-04-02T02:57:52.740Z,5.70
2023-04-02T02:58:56.929Z,4.95
2023-04-02T03:00:05.601Z,4.97
2023-04-02T03:01:08.143Z,6.30
2023-04-02T03:02:11.013Z,5.95
2023-04-02T03:03:17.007Z,4.45
2023-04-02T03:04:25.146Z,5.03
2023-04-02T03:05:28.535Z,4.90
2023-04-02T03:06:30.464Z,5.50
2023-04-02T03:07:32.548Z,4.32
2023-04-02T03:08:40.362Z,5.32
2023-04-02T03:10:14.474Z,4.68
2023-04-02T03:11:58.476Z,7.13
2023-04-02T03:13:05.303Z,4.40
2023-04-02T03:14:31.096Z,4.25
2023-04-02T03:15:38.295Z,4.82
2023-04-02T03:16:49.162Z,4.82
2023-04-02T03:18:00.619Z,4.97
2023-04-02T03:19:26.637Z,4.47
2023-04-02T03:20:44.249Z,4.82
2023-04-02T03:22:19.491Z,5.00
2023-04-02T03:23:35.274Z,5.30
2023-04-02T03:24:46.778Z,5.15
2023-04-02T03:25:56.266Z,4.85
2023-04-02T03:27:20.541Z,4.43
2023-04-02T03:28:32.125Z,5.35
2023-04-02T03:29:39.483Z,6.97
2023-04-02T03:30:44.655Z,4.35
2023-04-02T03:31:57.815Z,4.53
2023-04-02T03:33:43.839Z,4.28
2023-04-02T03:34:58.718Z,5.78
2023-04-02T03:36:10.762Z,4.78
2023-04-02T03:37:26.103Z,4.85
2023-04-02T03:38:38.841Z,4.72
2023-04-02T03:40:08.423Z,5.43
2023-04-02T03:41:12.159Z,5.90
2023-04-02T03:42:22.649Z,4.65
2023-04-02T03:43:37.128Z,4.55
2023-04-02T03:45:08.134Z,5.88
2023-04-02T03:46:09.565Z,4.97
2023-04-02T03:47:19.296Z,5.47
2023-04-02T03:48:37.365Z,5.13
2023-04-02T03:49:47.906Z,4.97
2023-04-02T03:51:00.550Z,5.57
2023-04-02T03:52:06.742Z,6.50
2023-04-02T03:53:09.183Z,4.30
2023-04-02T03:56:58.883Z,5.63
2023-04-02T04:00:32.859Z,5.90
2023-04-02T04:03:02.771Z,5.13
2023-04-02T04:04:19.244Z,5.38
2023-04-02T04:05:35.513Z,5.40
2023-04-02T04:06:42.863Z,5.32
2023-04-02T04:07:44.874Z,5.20
2023-04-02T04:08:58.475Z,5.20
2023-04-02T04:10:05.807Z,5.00
2023-04-02T04:11:16.766Z,5.57
2023-04-02T04:12:36.161Z,5.45
2023-04-02T04:13:56.638Z,5.75
2023-04-02T04:15:09.605Z,4.72
2023-04-02T04:16:26.719Z,5.30
2023-04-02T04:17:57.195Z,4.28
2023-04-02T04:19:21.675Z,5.78
2023-04-02T04:32:38.519Z,5.65
2023-04-02T04:34:07.926Z,4.82
2023-04-02T04:35:42.219Z,5.10
2023-04-02T04:37:09.262Z,5.90
2023-04-02T04:38:39.210Z,5.50
2023-04-02T04:39:51.118Z,5.88
2023-04-02T04:41:10.432Z,6.38
2023-04-02T04:42:25.703Z,5.63
2023-04-02T04:44:51.182Z,5.60
2023-04-02T04:46:01.619Z,5.47
2023-04-02T04:47:23.701Z,6.20
2023-04-02T04:48:36.383Z,7.00
2023-04-02T04:52:57.871Z,5.18
2023-04-02T04:54:17.478Z,5.55
2023-04-02T04:55:45.245Z,4.97
2023-04-02T04:56:55.994Z,5.10
2023-04-02T04:58:59.959Z,4.90
2023-04-02T05:04:26.459Z,4.82
2023-04-02T05:05:33.883Z,5.53
2023-04-02T05:06:38.545Z,6.55
2023-04-02T05:07:49.169Z,4.78
2023-04-02T05:08:57.309Z,5.85
2023-04-02T05:10:27.399Z,6.63
2023-04-02T05:12:00.223Z,5.07
2023-04-02T05:13:14.247Z,5.45
2023-04-02T05:14:25.898Z,6.10
2023-04-02T05:15:35.589Z,7.20
2023-04-02T05:16:47.010Z,7.20
2023-04-02T05:18:26.982Z,5.68
2023-04-02T05:19:37.568Z,5.88
2023-04-02T05:21:07.050Z,6.60
2023-04-02T05:22:41.314Z,4.53
2023-04-02T05:23:53.726Z,4.68
2023-04-02T05:25:19.871Z,5.93
2023-04-02T05:26:31.624Z,6.35
2023-04-02T05:27:46.712Z,5.00
2023-04-02T05:29:02.675Z,5.75
2023-04-02T05:30:32.738Z,5.32
2023-04-02T05:31:46.840Z,5.82
2023-04-02T05:32:56.315Z,6.43
2023-04-02T05:33:58.168Z,4.97
2023-04-02T05:35:00.046Z,5.63
2023-04-02T05:36:12.381Z,5.28
2023-04-02T05:37:19.135Z,4.97
2023-04-02T05:38:23.748Z,4.75
2023-04-02T05:39:27.120Z,4.72
2023-04-02T05:40:46.473Z,4.93
2023-04-02T05:41:48.523Z,5.03
2023-04-02T05:42:52.936Z,6.30
2023-04-02T05:44:20.492Z,5.35
2023-04-02T05:45:31.757Z,5.00
2023-04-02T05:46:53.651Z,5.13
2023-04-02T05:48:01.617Z,5.40
2023-04-02T05:49:09.506Z,6.07
2023-04-02T05:50:27.101Z,6.53
2023-04-02T05:51:41.668Z,5.13
2023-04-02T05:52:48.780Z,4.43
2023-04-02T05:53:55.329Z,5.25
2023-04-02T05:55:04.734Z,5.88
2023-04-02T05:56:16.739Z,5.35
2023-04-02T05:57:29.572Z,5.55
2023-04-02T05:59:01.319Z,5.10
2023-04-02T06:00:07.812Z,5.22
2023-04-02T06:01:25.230Z,5.93
2023-04-02T06:02:37.367Z,5.20
2023-04-02T06:03:48.852Z,5.80
2023-04-02T06:05:15.137Z,4.90
2023-04-02T06:08:58.273Z,4.72
2023-04-02T06:10:35.542Z,5.20
2023-04-02T06:11:45.692Z,5.63
2023-04-02T06:12:54.090Z,5.65
2023-04-02T06:13:58.741Z,4.53
2023-04-02T06:15:00.588Z,11.35
2023-04-02T06:16:05.981Z,5.53
2023-04-02T06:17:12.127Z,5.65
2023-04-02T06:18:18.424Z,5.20
2023-04-02T06:19:27.611Z,5.38
2023-04-02T06:20:29.123Z,6.85
2023-04-02T06:21:31.794Z,6.10
2023-04-02T06:22:38.570Z,5.43
2023-04-02T06:24:01.164Z,6.00
2023-04-02T06:25:20.611Z,6.30
2023-04-02T06:26:41.824Z,5.60
2023-04-02T06:27:46.466Z,5.55
2023-04-02T06:28:53.805Z,5.18
2023-04-02T06:30:01.065Z,5.03
2023-04-02T06:31:09.663Z,6.25
2023-04-02T06:32:12.698Z,5.18
2023-04-02T06:34:23.312Z,5.45
2023-04-02T06:35:25.058Z,5.82
2023-04-02T06:36:27.757Z,6.20
2023-04-02T06:37:36.871Z,5.50
2023-04-02T06:39:40.569Z,5.75
2023-04-02T06:40:47.478Z,5.88
2023-04-02T06:42:04.481Z,6.93
2023-04-02T06:43:26.741Z,6.30
2023-04-02T06:48:02.100Z,5.32
2023-04-02T06:49:20.502Z,5.57
2023-04-02T06:50:25.226Z,6.30
2023-04-02T06:51:42.198Z,6.13
2023-04-02T06:53:14.767Z,6.03
2023-04-02T06:54:18.067Z,5.57
2023-04-02T06:55:50.496Z,6.65
2023-04-02T06:56:53.726Z,7.43
2023-04-02T06:57:55.612Z,6.53
2023-04-02T06:58:58.058Z,5.35
2023-04-02T06:59:59.811Z,5.97
2023-04-02T07:01:01.447Z,6.00
2023-04-02T07:02:16.750Z,5.53
2023-04-02T07:03:36.444Z,6.95
2023-04-02T07:04:38.209Z,5.85
2023-04-02T07:05:42.437Z,7.03
2023-04-02T07:06:44.509Z,6.40
2023-04-02T07:07:46.208Z,7.10
2023-04-02T07:08:55.568Z,6.55
2023-04-02T07:10:29.633Z,6.32
2023-04-02T07:11:31.672Z,7.43
2023-04-02T07:12:33.420Z,7.50
2023-04-02T07:13:34.986Z,6.18
2023-04-02T07:14:36.446Z,7.28
2023-04-02T07:15:38.175Z,5.97
2023-04-02T07:16:52.313Z,6.82
2023-04-02T07:38:37.569Z,4.78
2023-04-02T08:00:35.926Z,1.20
2023-04-02T08:06:12.561Z,2.60
2023-04-02T08:11:52.153Z,6.65
2023-04-02T08:14:05.420Z,7.82
2023-04-02T08:19:54.080Z,3.00
2023-04-02T08:20:57.629Z,1.48
2023-04-02T08:21:59.225Z,2.88
2023-04-02T08:23:01.147Z,1.73
2023-04-02T08:24:03.790Z,1.92
2023-04-02T08:25:05.826Z,2.25
2023-04-02T08:26:07.638Z,2.38
2023-04-02T08:27:14.481Z,2.30
2023-04-02T08:28:16.686Z,1.90
2023-04-02T08:29:18.366Z,1.55
2023-04-02T08:30:20.022Z,1.92
2023-04-02T08:31:21.907Z,1.58
2023-04-02T08:32:24.243Z,1.08
2023-04-02T08:33:26.395Z,1.77
2023-04-02T08:34:29.694Z,9.77
2023-04-02T08:35:31.309Z,5.10
2023-04-02T08:36:38.790Z,11.90
2023-04-02T08:37:41.407Z,3.42
2023-04-02T08:38:42.939Z,3.17
2023-04-02T08:39:44.363Z,2.17
2023-04-02T08:40:52.197Z,1.45
2023-04-02T08:42:03.015Z,1.55
2023-04-02T08:43:22.459Z,1.58
2023-04-02T08:44:53.697Z,1.27
2023-04-02T08:46:04.474Z,2.03
2023-04-02T08:47:08.374Z,1.45
2023-04-02T08:48:11.494Z,1.98
2023-04-02T08:49:16.880Z,1.80
2023-04-02T08:50:34.496Z,1.65
2023-04-02T08:51:37.194Z,2.17
2023-04-02T08:52:39.141Z,2.00
2023-04-02T08:53:42.149Z,2.25
2023-04-02T08:54:43.658Z,1.58
2023-04-02T08:56:05.531Z,2.28
2023-04-02T08:57:13.573Z,2.17
2023-04-02T08:58:21.269Z,1.33
2023-04-02T08:59:22.722Z,1.15
2023-04-02T09:00:39.989Z,2.00
2023-04-02T09:02:13.752Z,1.98
2023-04-02T09:03:22.226Z,1.75
2023-04-02T09:04:25.783Z,2.08
2023-04-02T09:05:31.893Z,1.52
2023-04-02T09:06:34.595Z,1.65
2023-04-02T09:07:36.455Z,1.27
2023-04-02T09:08:37.940Z,1.08
2023-04-02T09:09:39.434Z,1.50
2023-04-02T09:10:50.601Z,0.63
2023-04-02T09:11:59.070Z,2.13
2023-04-02T09:13:02.699Z,1.95
2023-04-02T09:14:13.432Z,1.75
2023-04-02T09:15:29.373Z,3.30
2023-04-02T09:16:54.352Z,3.78
2023-04-02T09:18:11.746Z,1.63
2023-04-02T09:19:32.687Z,2.45
2023-04-02T09:20:34.241Z,1.83
2023-04-02T09:21:44.352Z,1.38
2023-04-02T09:22:48.504Z,1.92
2023-04-02T09:23:50.621Z,1.20
2023-04-02T09:24:57.456Z,1.42
2023-04-02T09:26:04.606Z,1.55
2023-04-02T09:27:18.032Z,2.13
2023-04-02T09:28:24.389Z,2.13
2023-04-02T09:29:37.941Z,1.63
2023-04-02T09:31:01.552Z,2.45
2023-04-02T09:32:21.996Z,1.98
2023-04-02T09:33:49.031Z,2.83
2023-04-02T09:34:50.484Z,1.85
2023-04-02T09:35:51.907Z,1.63
2023-04-02T09:36:53.457Z,2.00
2023-04-02T09:38:10.321Z,1.50
2023-04-02T09:39:20.482Z,1.58
2023-04-02T09:40:35.152Z,2.67
2023-04-02T09:41:37.313Z,1.33
2023-04-02T09:42:38.852Z,1.63
2023-04-02T09:43:40.561Z,1.77
2023-04-02T09:44:41.972Z,1.35
2023-04-02T09:45:44.916Z,2.28
2023-04-02T09:47:56.173Z,1.75
2023-04-02T09:49:01.466Z,1.20
2023-04-02T09:50:26.011Z,1.42
2023-04-02T09:51:34.224Z,2.38
2023-04-02T09:52:36.393Z,1.52
2023-04-02T09:53:42.843Z,1.48
2023-04-02T09:54:44.467Z,1.92
2023-04-02T09:55:46.196Z,1.73
2023-04-02T09:57:05.845Z,1.70
2023-04-02T09:58:16.668Z,1.95
2023-04-02T09:59:21.937Z,1.60
2023-04-02T10:00:32.229Z,1.98
2023-04-02T10:01:42.683Z,1.65
2023-04-02T10:02:46.744Z,1.70
2023-04-02T10:03:48.546Z,2.47
2023-04-02T10:04:50.242Z,1.77
2023-04-02T10:06:12.561Z,1.85
2023-04-02T10:07:38.256Z,2.72
2023-04-02T10:08:43.584Z,1.55
2023-04-02T10:09:45.098Z,1.02
2023-04-02T10:10:51.098Z,1.20
2023-04-02T10:11:55.759Z,2.25
2023-04-02T10:13:02.637Z,2.05
2023-04-02T10:14:10.003Z,1.60
2023-04-02T10:15:20.338Z,1.85
2023-04-02T10:16:33.170Z,1.95
2023-04-02T10:17:37.106Z,2.25
2023-04-02T10:18:50.727Z,2.47
2023-04-02T10:19:56.071Z,1.98
2023-04-02T10:21:03.263Z,2.10
2023-04-02T10:22:16.575Z,2.58
2023-04-02T10:23:19.674Z,2.40
2023-04-02T10:24:21.194Z,1.63
2023-04-02T10:25:27.040Z,1.67
2023-04-02T10:26:51.762Z,2.65
2023-04-02T10:28:00.547Z,1.33
2023-04-02T10:29:39.022Z,1.45
2023-04-02T10:31:03.773Z,5.07
2023-04-02T10:32:12.438Z,6.82
2023-04-02T10:33:30.326Z,11.63
2023-04-02T10:34:32.160Z,3.15
2023-04-02T10:35:55.663Z,3.50
2023-04-02T10:37:08.829Z,2.60
2023-04-02T10:38:22.143Z,2.17
2023-04-02T10:39:41.066Z,2.20
2023-04-02T10:40:45.850Z,2.05
2023-04-02T10:42:00.090Z,2.35
2023-04-02T10:43:32.930Z,1.80
2023-04-02T10:44:50.606Z,1.63
2023-04-02T10:46:06.388Z,1.70
2023-04-02T10:47:27.333Z,1.83
2023-04-02T10:48:50.621Z,2.05
2023-04-02T10:50:14.076Z,2.08
2023-04-02T10:51:24.215Z,1.67
2023-04-02T10:53:21.179Z,1.75
2023-04-02T10:54:30.700Z,2.28
2023-04-02T10:55:40.876Z,2.17
2023-04-02T10:56:50.703Z,2.53
2023-04-02T10:57:56.728Z,2.65
2023-04-02T10:59:28.338Z,2.85
2023-04-02T11:00:38.936Z,2.20
2023-04-02T11:01:43.248Z,1.45
2023-04-02T11:03:01.954Z,1.30
2023-04-02T11:04:14.756Z,1.40
2023-04-02T11:05:28.278Z,1.35
2023-04-02T11:06:42.103Z,1.02
2023-04-02T11:07:53.079Z,1.80
2023-04-02T11:09:00.394Z,1.50
2023-04-02T11:10:02.413Z,2.10
2023-04-02T11:11:17.175Z,1.75
2023-04-02T11:12:25.684Z,2.33
2023-04-02T11:14:01.178Z,1.83
2023-04-02T11:15:03.514Z,1.58
2023-04-02T11:16:05.306Z,2.47
2023-04-02T11:17:13.772Z,1.67
2023-04-02T11:18:31.000Z,2.03
2023-04-02T11:19:34.142Z,1.55
2023-04-02T11:20:44.107Z,4.90
2023-04-02T11:21:59.872Z,2.20
2023-04-02T11:23:13.420Z,2.30
2023-04-02T11:24:30.636Z,2.90
2023-04-02T11:25:32.480Z,2.10
2023-04-02T11:26:46.179Z,2.10
2023-04-02T11:27:48.221Z,2.03
2023-04-02T11:28:49.977Z,2.33
2023-04-02T11:30:18.515Z,1.80
2023-04-02T11:31:20.845Z,2.35
2023-04-02T11:32:22.303Z,2.83
2023-04-02T11:33:38.605Z,3.00
2023-04-02T11:34:41.013Z,2.90
2023-04-02T11:35:42.655Z,2.70
2023-04-02T11:36:50.042Z,2.35
2023-04-02T11:37:51.953Z,2.58
2023-04-02T11:38:55.022Z,3.00
2023-04-02T11:40:07.494Z,2.80
2023-04-02T11:41:09.014Z,3.15
2023-04-02T11:42:19.817Z,2.85
2023-04-02T11:43:33.210Z,3.03
2023-04-02T11:44:34.678Z,3.05
2023-04-02T11:45:52.939Z,2.53
2023-04-02T11:47:18.850Z,2.80
2023-04-02T11:48:20.457Z,2.70
2023-04-02T11:49:57.915Z,3.03
2023-04-02T11:51:04.629Z,2.65
2023-04-02T11:52:20.985Z,2.72
2023-04-02T11:53:28.549Z,3.10
2023-04-02T11:54:38.092Z,2.88
2023-04-02T11:55:45.513Z,3.10
2023-04-02T11:56:56.402Z,2.95
2023-04-02T11:58:17.176Z,2.88
2023-04-02T11:59:39.844Z,2.60
2023-04-02T12:01:09.258Z,2.75
2023-04-02T12:02:27.920Z,2.75
2023-04-02T12:03:46.234Z,3.08
2023-04-02T12:05:39.682Z,3.10
2023-04-02T12:06:48.539Z,2.92
2023-04-02T12:07:55.772Z,3.05
2023-04-02T12:09:09.141Z,3.30
2023-04-02T12:10:27.154Z,3.60
2023-04-02T12:11:40.062Z,3.13
2023-04-02T12:12:43.109Z,3.05
2023-04-02T12:13:44.483Z,3.20
2023-04-02T12:14:51.272Z,3.28
2023-04-02T12:15:52.770Z,18.27
2023-04-02T12:16:54.466Z,14.95
2023-04-02T12:18:12.709Z,11.13
2023-04-02T12:19:16.777Z,5.30
2023-04-02T12:20:27.467Z,5.13
2023-04-02T12:21:29.937Z,5.97
2023-04-02T12:22:32.691Z,3.45
2023-04-02T12:23:37.147Z,3.70
2023-04-02T12:24:40.958Z,3.40
2023-04-02T12:25:50.644Z,3.05
2023-04-02T12:27:17.003Z,3.20
2023-04-02T12:28:19.659Z,3.30
2023-04-02T12:29:27.568Z,4.40
2023-04-02T12:30:28.970Z,3.55
2023-04-02T12:31:30.726Z,3.13
2023-04-02T12:32:32.360Z,3.33
2023-04-02T12:33:37.556Z,3.70
2023-04-02T12:34:46.430Z,3.60
2023-04-02T12:35:50.751Z,3.40
2023-04-02T12:37:04.155Z,3.63
2023-04-02T12:38:06.100Z,3.33
2023-04-02T12:39:17.015Z,3.67
2023-04-02T12:40:18.887Z,3.38
2023-04-02T12:41:27.300Z,4.07
2023-04-02T12:42:32.333Z,4.63
2023-04-02T12:43:35.739Z,3.63
2023-04-02T12:44:37.337Z,3.42
2023-04-02T12:45:38.790Z,3.42
2023-04-02T12:46:40.706Z,3.95
2023-04-02T12:47:45.332Z,3.42
2023-04-02T12:48:46.859Z,3.97
2023-04-02T12:49:49.453Z,3.80
2023-04-02T12:50:51.367Z,3.80
2023-04-02T12:51:53.167Z,4.13
2023-04-02T12:52:58.276Z,3.65
2023-04-02T12:54:00.227Z,3.25
2023-04-02T12:55:03.865Z,3.40
2023-04-02T12:56:08.181Z,4.30
2023-04-02T12:57:29.767Z,4.22
2023-04-02T12:58:42.851Z,3.55
2023-04-02T12:59:44.437Z,3.35
2023-04-02T13:00:46.255Z,3.63
2023-04-02T13:02:37.370Z,3.20
2023-04-02T13:03:39.225Z,3.40
2023-04-02T13:04:51.986Z,3.22
2023-04-02T13:05:56.420Z,3.67
2023-04-02T13:06:58.469Z,3.33
2023-04-02T13:08:00.052Z,3.40
2023-04-02T13:09:04.577Z,3.60
2023-04-02T13:10:23.277Z,3.67
2023-04-02T13:11:34.870Z,3.45
2023-04-02T13:12:39.334Z,3.63
2023-04-02T13:13:43.889Z,4.18
2023-04-02T13:14:45.386Z,12.27
2023-04-02T13:16:00.870Z,5.30
2023-04-02T13:17:02.326Z,4.32
2023-04-02T13:18:14.610Z,3.58
2023-04-02T13:19:32.429Z,3.47
2023-04-02T13:20:37.861Z,4.38
2023-04-02T13:21:39.615Z,4.10
2023-04-02T13:22:41.385Z,3.83
2023-04-02T13:23:43.899Z,3.28
2023-04-02T13:24:45.480Z,3.67
2023-04-02T13:25:46.958Z,3.70
2023-04-02T13:26:49.922Z,3.60
2023-04-02T13:29:03.502Z,3.45
2023-04-02T13:30:22.381Z,3.83
2023-04-02T13:31:23.942Z,4.90
2023-04-02T13:32:26.065Z,3.60
2023-04-02T13:33:27.816Z,4.25
2023-04-02T13:34:29.779Z,4.15
2023-04-02T13:35:31.713Z,3.97
2023-04-02T13:36:33.592Z,4.32
2023-04-02T13:37:35.040Z,4.15
2023-04-02T13:38:36.853Z,4.43
2023-04-02T13:39:38.271Z,4.07
2023-04-02T13:40:40.022Z,4.72
2023-04-02T13:41:46.595Z,4.20
2023-04-02T13:42:49.713Z,4.70
2023-04-02T13:43:52.431Z,4.47
2023-04-02T13:44:53.897Z,4.88
2023-04-02T13:45:58.365Z,19.40
2023-04-02T13:47:00.152Z,9.98
2023-04-02T13:48:02.256Z,7.55
2023-04-02T13:49:03.830Z,7.72
2023-04-02T13:50:05.841Z,4.88
2023-04-02T13:51:08.759Z,5.85
2023-04-02T13:52:15.032Z,5.57
2023-04-02T13:53:25.800Z,4.75
2023-04-02T13:54:31.215Z,5.00
2023-04-02T13:55:37.651Z,4.43
2023-04-02T13:56:39.306Z,4.00
2023-04-02T13:57:41.008Z,4.13
2023-04-02T13:58:42.428Z,5.30
2023-04-02T13:59:43.877Z,4.05
2023-04-02T14:00:46.512Z,3.80
2023-04-02T14:01:51.252Z,3.95
2023-04-02T14:03:04.758Z,4.15
2023-04-02T14:04:07.466Z,5.53
2023-04-02T14:05:32.005Z,6.57
2023-04-02T14:07:23.720Z,6.38
2023-04-02T14:08:48.064Z,3.30
2023-04-02T14:10:14.264Z,4.35
2023-04-02T14:11:27.872Z,6.80
2023-04-02T14:12:41.475Z,4.82
2023-04-02T14:14:08.800Z,4.47
2023-04-02T14:15:36.578Z,3.60
2023-04-02T14:16:46.480Z,3.88
2023-04-02T14:18:15.872Z,3.67
2023-04-02T14:19:45.242Z,3.33
2023-04-02T14:20:58.735Z,3.78
2023-04-02T14:22:06.145Z,3.70
2023-04-02T14:23:17.629Z,3.35
2023-04-02T14:24:40.632Z,4.25
2023-04-02T14:26:01.104Z,3.42
2023-04-02T14:27:03.602Z,3.92
2023-04-02T14:28:26.956Z,3.60
2023-04-02T14:29:51.170Z,3.80
2023-04-02T14:31:18.965Z,3.25
2023-04-02T14:32:27.611Z,3.42
2023-04-02T14:33:41.291Z,3.10
2023-04-02T14:35:16.680Z,4.07
2023-04-02T14:36:23.308Z,3.53
2023-04-02T14:37:42.073Z,3.88
2023-04-02T14:38:57.686Z,3.42
2023-04-02T14:40:14.477Z,3.30
2023-04-02T14:41:38.213Z,3.50
2023-04-02T14:43:01.962Z,3.58
2023-04-02T14:44:06.014Z,3.50
2023-04-02T14:45:10.460Z,3.50
2023-04-02T14:46:12.265Z,3.47
2023-04-02T14:47:31.176Z,3.08
2023-04-02T14:48:54.367Z,3.10
2023-04-02T14:50:02.911Z,3.50
2023-04-02T14:51:30.862Z,3.42
2023-04-02T14:52:35.387Z,3.83
2023-04-02T14:53:58.210Z,3.53
2023-04-02T14:55:04.225Z,3.50
2023-04-02T14:56:08.462Z,4.28
2023-04-02T14:57:21.904Z,3.30
2023-04-02T14:58:29.226Z,4.20
2023-04-02T14:59:50.294Z,3.60
2023-04-02T15:01:15.316Z,4.43
2023-04-02T15:02:22.605Z,3.47
2023-04-02T15:03:29.562Z,3.40
2023-04-02T15:04:38.132Z,3.10
2023-04-02T15:05:44.536Z,3.35
2023-04-02T15:06:51.428Z,3.40
2023-04-02T15:08:07.069Z,3.65
2023-04-02T15:09:16.548Z,3.85
2023-04-02T15:10:29.147Z,3.85
2023-04-02T15:12:07.383Z,3.75
2023-04-02T15:13:19.878Z,3.63
2023-04-02T15:14:28.025Z,3.90
2023-04-02T15:15:47.505Z,3.40
2023-04-02T15:16:49.215Z,3.92
2023-04-02T15:17:51.313Z,4.00
2023-04-02T15:18:56.566Z,3.85
2023-04-02T15:20:15.017Z,3.92
2023-04-02T15:21:19.338Z,3.90
2023-04-02T15:22:47.878Z,4.32
2023-04-02T15:24:17.187Z,3.65
2023-04-02T15:25:37.743Z,3.47
2023-04-02T15:26:51.474Z,4.57
2023-04-02T15:28:12.893Z,7.97
2023-04-02T15:29:42.797Z,5.47
2023-04-02T15:30:45.971Z,15.20
2023-04-02T15:31:47.586Z,6.22
2023-04-02T15:32:49.544Z,4.28
2023-04-02T15:34:21.617Z,6.28
2023-04-02T15:35:43.623Z,3.80
2023-04-02T15:36:49.584Z,3.72
2023-04-02T15:38:00.055Z,4.38
2023-04-02T15:39:12.960Z,3.70
2023-04-02T15:40:34.721Z,5.10
2023-04-02T15:41:47.418Z,5.55
2023-04-02T15:43:00.478Z,4.53
2023-04-02T15:44:15.545Z,5.78
2023-04-02T15:45:38.066Z,5.70
2023-04-02T15:46:58.476Z,4.50
2023-04-02T15:48:18.394Z,4.15
2023-04-02T15:49:33.708Z,4.88
2023-04-02T15:52:13.471Z,4.10
2023-04-02T15:53:26.890Z,4.15
2023-04-02T15:55:03.951Z,3.67
2023-04-02T15:56:19.480Z,4.35
2023-04-02T15:57:59.233Z,3.88
2023-04-02T15:59:22.651Z,5.75
2023-04-02T16:00:29.697Z,8.45
2023-04-02T16:01:33.925Z,7.32
2023-04-02T16:02:46.374Z,5.07
2023-04-02T16:03:47.953Z,4.57
2023-04-02T16:05:01.206Z,4.55
2023-04-02T16:06:13.142Z,4.22
2023-04-02T16:07:33.521Z,5.03
2023-04-02T16:09:21.228Z,4.43
2023-04-02T16:10:41.231Z,5.25
2023-04-02T16:11:44.159Z,4.85
2023-04-02T16:12:47.577Z,4.68
2023-04-02T16:13:49.149Z,4.13
2023-04-02T16:14:50.667Z,4.50
2023-04-02T16:16:01.853Z,3.80
2023-04-02T16:17:23.864Z,4.18
2023-04-02T16:19:15.967Z,4.38
2023-04-02T16:20:29.494Z,4.55
2023-04-02T16:21:40.375Z,4.43
2023-04-02T16:22:59.213Z,3.85
2023-04-02T16:24:01.972Z,4.28
2023-04-02T16:25:19.550Z,4.55
2023-04-02T16:26:27.132Z,4.55
2023-04-02T16:27:38.254Z,4.10
2023-04-02T16:28:42.757Z,4.22
2023-04-02T16:31:21.906Z,4.90
2023-04-02T16:33:01.011Z,4.95
2023-04-02T16:34:05.483Z,4.78
2023-04-02T16:35:40.750Z,4.53
2023-04-02T16:37:04.879Z,4.30
2023-04-02T16:38:17.748Z,3.95
2023-04-02T16:39:38.866Z,4.00
2023-04-02T16:41:08.413Z,4.55
2023-04-02T16:42:19.730Z,4.40
2023-04-02T16:43:40.386Z,4.90
2023-04-02T16:44:50.338Z,4.25
2023-04-02T16:45:57.608Z,4.90
2023-04-02T16:47:20.940Z,6.75
2023-04-02T16:48:36.237Z,5.10
2023-04-02T16:50:52.394Z,5.03
2023-04-02T16:52:26.849Z,14.50
2023-04-02T16:54:00.305Z,10.48
2023-04-02T16:55:24.112Z,5.53
2023-04-02T16:56:26.771Z,5.38
2023-04-02T16:57:50.879Z,5.32
2023-04-02T16:59:19.787Z,5.72
2023-04-02T17:00:30.666Z,4.65
2023-04-02T17:01:47.773Z,5.63
2023-04-02T17:03:05.561Z,4.80
2023-04-02T17:04:52.419Z,6.53
2023-04-02T17:06:13.400Z,4.75
2023-04-02T17:07:34.856Z,5.30
2023-04-02T17:09:51.495Z,4.85
2023-04-02T17:11:08.844Z,4.78
2023-04-02T17:12:33.270Z,5.00
2023-04-02T17:13:44.222Z,6.97
2023-04-02T17:14:54.582Z,6.35
2023-04-02T17:16:09.205Z,5.57
2023-04-02T17:17:14.743Z,6.30
2023-04-02T17:18:20.093Z,5.07
2023-04-02T17:19:26.121Z,4.75
2023-04-02T17:20:28.311Z,6.00
2023-04-02T17:21:31.202Z,5.25
2023-04-02T17:22:33.108Z,5.32
2023-04-02T17:24:02.200Z,5.15
2023-04-02T17:25:07.464Z,5.75
2023-04-02T17:26:11.223Z,5.28
2023-04-02T17:27:35.537Z,4.80
2023-04-02T17:28:38.659Z,4.68
2023-04-02T17:29:43.418Z,6.57
2023-04-02T17:30:49.351Z,5.40